createdAt,value
2017-08-04T00:00:00.491Z,4.30
2017-08-04T00:00:05.045Z,4.27
2017-08-04T00:00:09.264Z,4.25
2017-08-04T00:00:13.513Z,4.50
2017-08-04T00:00:17.753Z,4.80
2017-08-04T00:00:22.001Z,5.00
2017-08-04T00:00:26.273Z,5.10
2017-08-04T00:00:30.525Z,4.55
2017-08-04T00:00:34.784Z,4.80
2017-08-04T00:00:39.035Z,4.95
2017-08-04T00:00:43.275Z,4.90
2017-08-04T00:00:47.602Z,4.90
2017-08-04T00:00:51.836Z,4.80
2017-08-04T00:00:56.122Z,4.85
2017-08-04T00:01:00.400Z,5.00
2017-08-04T00:01:04.662Z,5.13
2017-08-04T00:01:08.890Z,5.25
2017-08-04T00:01:13.141Z,5.35
2017-08-04T00:01:17.387Z,5.40
2017-08-04T00:01:22.386Z,5.40
2017-08-04T00:01:26.626Z,5.27
2017-08-04T00:01:30.875Z,5.10
2017-08-04T00:01:35.147Z,4.80
2017-08-04T00:01:39.387Z,4.70
2017-08-04T00:01:44.389Z,4.75
2017-08-04T00:01:48.625Z,4.83
2017-08-04T00:01:52.863Z,5.10
2017-08-04T00:01:57.093Z,5.40
2017-08-04T00:02:01.340Z,5.30
2017-08-04T00:02:05.575Z,5.35
2017-08-04T00:02:09.833Z,4.85
2017-08-04T00:02:14.117Z,4.90
2017-08-04T00:02:19.188Z,4.53
2017-08-04T00:02:23.443Z,4.50
2017-08-04T00:02:27.673Z,4.70
2017-08-04T00:02:31.931Z,4.65
2017-08-04T00:02:36.951Z,4.30
2017-08-04T00:02:41.948Z,5.12
2017-08-04T00:02:46.179Z,4.93
2017-08-04T00:02:50.421Z,4.75
2017-08-04T00:02:54.669Z,4.30
2017-08-04T00:02:59.675Z,4.20
2017-08-04T00:03:03.919Z,4.50
2017-08-04T00:03:08.252Z,4.70
2017-08-04T00:03:12.497Z,4.40
2017-08-04T00:03:16.741Z,4.35
2017-08-04T00:03:21.019Z,5.10
2017-08-04T00:03:25.261Z,5.17
2017-08-04T00:03:29.512Z,5.30
2017-08-04T00:03:33.773Z,5.95
2017-08-04T00:03:38.836Z,5.70
2017-08-04T00:03:43.073Z,5.10
2017-08-04T00:03:47.313Z,5.10
2017-08-04T00:03:51.578Z,5.95
2017-08-04T00:03:55.871Z,6.45
2017-08-04T00:04:00.108Z,6.77
2017-08-04T00:04:05.125Z,6.60
2017-08-04T00:04:10.164Z,6.70
2017-08-04T00:04:14.388Z,6.87
2017-08-04T00:04:18.695Z,6.25
2017-08-04T00:04:22.951Z,6.33
2017-08-04T00:04:27.231Z,6.80
2017-08-04T00:04:31.465Z,6.65
2017-08-04T00:04:35.685Z,7.20
2017-08-04T00:04:39.963Z,7.20
2017-08-04T00:04:44.967Z,7.15
2017-08-04T00:04:50.003Z,7.50
2017-08-04T00:04:54.295Z,6.50
2017-08-04T00:04:58.534Z,6.00
2017-08-04T00:05:02.757Z,5.70
2017-08-04T00:05:06.996Z,5.45
2017-08-04T00:05:11.276Z,5.45
2017-08-04T00:05:15.545Z,6.05
2017-08-04T00:05:19.798Z,6.70
2017-08-04T00:05:24.043Z,6.25
2017-08-04T00:05:28.269Z,6.30
2017-08-04T00:05:33.284Z,5.70
2017-08-04T00:05:37.513Z,5.17
2017-08-04T00:05:41.802Z,5.27
2017-08-04T00:05:46.063Z,5.45
2017-08-04T00:05:50.323Z,5.15
2017-08-04T00:05:54.549Z,5.55
2017-08-04T00:05:58.802Z,5.73
2017-08-04T00:06:03.854Z,5.80
2017-08-04T00:06:08.091Z,5.83
2017-08-04T00:06:12.360Z,5.40
2017-08-04T00:06:16.582Z,4.80
2017-08-04T00:06:20.829Z,4.65
2017-08-04T00:06:25.077Z,4.80
2017-08-04T00:06:29.345Z,5.30
2017-08-04T00:06:33.655Z,5.37
2017-08-04T00:06:37.934Z,5.30
2017-08-04T00:06:42.919Z,5.35
2017-08-04T00:06:47.145Z,5.10
2017-08-04T00:06:51.399Z,5.03
2017-08-04T00:06:55.648Z,5.30
2017-08-04T00:06:59.891Z,5.30
2017-08-04T00:07:04.122Z,6.00
2017-08-04T00:07:08.380Z,6.63
2017-08-04T00:07:12.668Z,6.80
2017-08-04T00:07:17.649Z,6.85
2017-08-04T00:07:22.653Z,6.70
2017-08-04T00:07:27.701Z,5.90
2017-08-04T00:07:32.713Z,5.70
2017-08-04T00:07:37.794Z,5.93
2017-08-04T00:07:42.017Z,6.03
2017-08-04T00:07:46.245Z,6.17
2017-08-04T00:07:50.489Z,6.55
2017-08-04T00:07:54.763Z,6.15
2017-08-04T00:07:58.983Z,6.25
2017-08-04T00:08:03.240Z,5.90
2017-08-04T00:08:08.369Z,5.25
2017-08-04T00:08:12.607Z,5.13
2017-08-04T00:08:16.836Z,5.30
2017-08-04T00:08:21.900Z,5.15
2017-08-04T00:08:26.147Z,5.45
2017-08-04T00:08:30.377Z,5.60
2017-08-04T00:08:35.507Z,5.75
2017-08-04T00:08:40.485Z,5.87
2017-08-04T00:08:44.778Z,5.77
2017-08-04T00:08:49.003Z,5.30
2017-08-04T00:08:53.283Z,5.13
2017-08-04T00:08:57.543Z,4.95
2017-08-04T00:09:01.784Z,4.65
2017-08-04T00:09:12.837Z,4.78
2017-08-04T00:09:17.099Z,4.60
2017-08-04T00:09:21.323Z,4.45
2017-08-04T00:09:25.554Z,4.15
2017-08-04T00:09:30.572Z,4.30
2017-08-04T00:09:34.826Z,4.00
2017-08-04T00:09:39.096Z,4.13
2017-08-04T00:09:44.091Z,4.45
2017-08-04T00:09:49.119Z,4.43
2017-08-04T00:09:54.136Z,4.43
2017-08-04T00:09:58.366Z,4.90
2017-08-04T00:10:02.613Z,5.00
2017-08-04T00:10:06.850Z,5.80
2017-08-04T00:10:11.100Z,6.05
2017-08-04T00:10:15.354Z,6.15
2017-08-04T00:10:19.677Z,6.75
2017-08-04T00:10:23.923Z,7.80
2017-08-04T00:10:28.176Z,7.85
2017-08-04T00:10:32.419Z,7.70
2017-08-04T00:10:36.736Z,7.60
2017-08-04T00:10:41.018Z,7.60
2017-08-04T00:10:45.247Z,7.45
2017-08-04T00:10:50.275Z,7.65
2017-08-04T00:10:54.523Z,7.67
2017-08-04T00:10:58.770Z,7.40
2017-08-04T00:11:03.033Z,7.90
2017-08-04T00:11:07.318Z,7.65
2017-08-04T00:11:11.567Z,7.30
2017-08-04T00:11:16.560Z,7.30
2017-08-04T00:11:20.804Z,6.53
2017-08-04T00:11:25.058Z,6.15
2017-08-04T00:11:29.294Z,6.50
2017-08-04T00:11:33.544Z,6.30
2017-08-04T00:11:37.857Z,6.40
2017-08-04T00:11:42.108Z,6.15
2017-08-04T00:11:46.346Z,6.70
2017-08-04T00:11:50.581Z,7.10
2017-08-04T00:11:55.608Z,7.10
2017-08-04T00:11:59.833Z,7.10
2017-08-04T00:12:04.065Z,6.55
2017-08-04T00:12:08.369Z,6.20
2017-08-04T00:12:12.632Z,6.07
2017-08-04T00:12:16.882Z,6.25
2017-08-04T00:12:21.125Z,6.60
2017-08-04T00:12:25.379Z,6.23
2017-08-04T00:12:29.625Z,6.25
2017-08-04T00:12:33.874Z,6.50
2017-08-04T00:12:38.135Z,6.90
2017-08-04T00:12:42.406Z,6.90
2017-08-04T00:12:47.429Z,6.45
2017-08-04T00:12:51.666Z,6.30
2017-08-04T00:12:55.897Z,6.55
2017-08-04T00:13:00.124Z,6.85
2017-08-04T00:13:04.427Z,6.67
2017-08-04T00:13:09.513Z,6.75
2017-08-04T00:13:13.767Z,7.87
2017-08-04T00:13:18.080Z,7.65
2017-08-04T00:13:22.307Z,7.60
2017-08-04T00:13:26.533Z,7.75
2017-08-04T00:13:30.788Z,7.30
2017-08-04T00:13:35.055Z,7.20
2017-08-04T00:13:39.331Z,7.50
2017-08-04T00:13:44.341Z,7.95
2017-08-04T00:13:48.579Z,7.60
2017-08-04T00:13:52.807Z,7.60
2017-08-04T00:13:57.038Z,7.30
2017-08-04T00:14:01.277Z,7.25
2017-08-04T00:14:05.541Z,7.50
2017-08-04T00:14:09.796Z,6.85
2017-08-04T00:14:14.028Z,5.97
2017-08-04T00:14:18.257Z,6.05
2017-08-04T00:14:23.281Z,6.15
2017-08-04T00:14:27.561Z,6.30
2017-08-04T00:14:31.782Z,6.80
2017-08-04T00:14:36.037Z,6.87
2017-08-04T00:14:40.311Z,6.10
2017-08-04T00:14:44.564Z,5.70
2017-08-04T00:14:48.794Z,5.80
2017-08-04T00:14:53.045Z,5.63
2017-08-04T00:14:57.309Z,5.75
2017-08-04T00:15:01.566Z,5.65
2017-08-04T00:15:06.595Z,5.50
2017-08-04T00:15:11.590Z,5.67
2017-08-04T00:15:15.838Z,5.97
2017-08-04T00:15:20.069Z,5.80
2017-08-04T00:15:24.305Z,5.70
2017-08-04T00:15:29.308Z,5.50
2017-08-04T00:15:33.538Z,4.83
2017-08-04T00:15:37.789Z,4.73
2017-08-04T00:15:42.038Z,4.65
2017-08-04T00:15:47.034Z,4.70
2017-08-04T00:15:52.025Z,4.73
2017-08-04T00:15:57.063Z,4.73
2017-08-04T00:16:01.289Z,4.53
2017-08-04T00:16:05.525Z,4.70
2017-08-04T00:16:09.769Z,4.77
2017-08-04T00:16:14.109Z,4.20
2017-08-04T00:16:18.339Z,4.10
2017-08-04T00:16:22.632Z,3.63
2017-08-04T00:16:26.865Z,3.65
2017-08-04T00:16:31.891Z,3.70
2017-08-04T00:16:36.909Z,3.60
2017-08-04T00:16:41.170Z,4.13
2017-08-04T00:16:45.431Z,4.00
2017-08-04T00:16:50.417Z,3.97
2017-08-04T00:16:54.667Z,4.20
2017-08-04T00:16:58.953Z,4.15
2017-08-04T00:17:03.179Z,3.95
2017-08-04T00:17:07.419Z,3.95
2017-08-04T00:17:11.694Z,3.97
2017-08-04T00:17:15.932Z,4.00
2017-08-04T00:17:20.925Z,5.05
2017-08-04T00:17:25.157Z,5.13
2017-08-04T00:17:29.393Z,5.13
2017-08-04T00:17:33.659Z,5.80
2017-08-04T00:17:37.921Z,5.70
2017-08-04T00:17:42.155Z,5.35
2017-08-04T00:17:47.147Z,5.77
2017-08-04T00:17:51.390Z,5.70
2017-08-04T00:17:55.637Z,6.20
2017-08-04T00:17:59.865Z,6.10
2017-08-04T00:18:04.868Z,5.90
2017-08-04T00:18:09.105Z,6.13
2017-08-04T00:18:13.705Z,6.33
2017-08-04T00:18:17.987Z,6.00
2017-08-04T00:18:23.012Z,6.20
2017-08-04T00:18:27.255Z,6.77
2017-08-04T00:18:31.513Z,6.25
2017-08-04T00:18:36.527Z,6.00
2017-08-04T00:18:41.547Z,6.23
2017-08-04T00:18:46.549Z,6.30
2017-08-04T00:18:50.789Z,6.30
2017-08-04T00:18:55.018Z,5.90
2017-08-04T00:18:59.328Z,5.73
2017-08-04T00:19:03.575Z,5.85
2017-08-04T00:19:08.600Z,5.75
2017-08-04T00:19:12.846Z,6.33
2017-08-04T00:19:17.069Z,6.37
2017-08-04T00:19:21.349Z,5.95
2017-08-04T00:19:25.600Z,5.35
2017-08-04T00:19:29.851Z,5.75
2017-08-04T00:19:34.088Z,5.97
2017-08-04T00:19:39.112Z,5.65
2017-08-04T00:19:44.157Z,5.43
2017-08-04T00:19:48.378Z,5.23
2017-08-04T00:19:52.593Z,5.40
2017-08-04T00:19:56.831Z,5.50
2017-08-04T00:20:01.115Z,5.77
2017-08-04T00:20:05.329Z,6.20
2017-08-04T00:20:09.588Z,5.30
2017-08-04T00:20:13.829Z,4.95
2017-08-04T00:20:18.083Z,5.00
2017-08-04T00:20:22.403Z,5.00
2017-08-04T00:20:26.651Z,6.15
2017-08-04T00:20:30.933Z,5.87
2017-08-04T00:20:35.188Z,5.90
2017-08-04T00:20:39.431Z,5.90
2017-08-04T00:20:44.424Z,5.80
2017-08-04T00:20:48.675Z,5.70
2017-08-04T00:20:52.928Z,5.63
2017-08-04T00:20:57.175Z,5.85
2017-08-04T00:21:01.416Z,5.80
2017-08-04T00:21:05.641Z,5.90
2017-08-04T00:21:10.800Z,6.67
2017-08-04T00:21:15.026Z,7.47
2017-08-04T00:21:19.275Z,7.95
2017-08-04T00:21:23.546Z,7.50
2017-08-04T00:21:27.778Z,7.33
2017-08-04T00:21:32.018Z,7.40
2017-08-04T00:21:36.252Z,7.75
2017-08-04T00:21:41.249Z,7.85
2017-08-04T00:21:45.486Z,8.37
2017-08-04T00:21:49.747Z,8.40
2017-08-04T00:21:53.981Z,8.35
2017-08-04T00:21:59.000Z,7.95
2017-08-04T00:22:04.047Z,8.13
2017-08-04T00:22:08.319Z,7.70
2017-08-04T00:22:13.331Z,7.40
2017-08-04T00:22:18.330Z,6.73
2017-08-04T00:22:22.574Z,6.43
2017-08-04T00:22:26.818Z,5.85
2017-08-04T00:22:31.057Z,5.80
2017-08-04T00:22:36.112Z,5.50
2017-08-04T00:22:40.371Z,5.30
2017-08-04T00:22:45.396Z,5.83
2017-08-04T00:22:50.403Z,5.77
2017-08-04T00:22:55.394Z,5.33
2017-08-04T00:22:59.636Z,5.33
2017-08-04T00:23:03.891Z,5.00
2017-08-04T00:23:08.143Z,5.10
2017-08-04T00:23:12.421Z,4.93
2017-08-04T00:23:17.444Z,5.05
2017-08-04T00:23:22.454Z,5.17
2017-08-04T00:23:27.460Z,5.37
2017-08-04T00:23:31.682Z,5.40
2017-08-04T00:23:36.681Z,5.90
2017-08-04T00:23:41.695Z,5.73
2017-08-04T00:23:45.940Z,5.03
2017-08-04T00:23:50.181Z,4.90
2017-08-04T00:23:54.503Z,5.10
2017-08-04T00:23:59.519Z,5.90
2017-08-04T00:24:03.745Z,5.87
2017-08-04T00:24:07.996Z,5.50
2017-08-04T00:24:13.209Z,5.43
2017-08-04T00:24:17.460Z,5.30
2017-08-04T00:24:22.457Z,5.00
2017-08-04T00:24:27.470Z,4.63
2017-08-04T00:24:31.706Z,4.50
2017-08-04T00:24:35.942Z,4.00
2017-08-04T00:24:40.212Z,3.90
2017-08-04T00:24:44.449Z,3.90
2017-08-04T00:24:48.707Z,3.95
2017-08-04T00:24:52.948Z,4.15
2017-08-04T00:24:57.219Z,3.97
2017-08-04T00:25:01.476Z,4.20
2017-08-04T00:25:05.701Z,4.05
2017-08-04T00:25:09.942Z,4.00
2017-08-04T00:25:14.199Z,4.25
2017-08-04T00:25:18.462Z,4.55
2017-08-04T00:25:22.679Z,4.85
2017-08-04T00:25:27.700Z,5.60
2017-08-04T00:25:32.714Z,5.50
2017-08-04T00:25:37.724Z,5.80
2017-08-04T00:25:41.982Z,5.63
2017-08-04T00:25:46.207Z,5.65
2017-08-04T00:25:50.441Z,5.60
2017-08-04T00:25:55.460Z,5.35
2017-08-04T00:26:00.481Z,4.90
2017-08-04T00:26:04.750Z,4.77
2017-08-04T00:26:08.985Z,4.90
2017-08-04T00:26:13.225Z,4.85
2017-08-04T00:26:17.495Z,4.60
2017-08-04T00:26:21.737Z,4.70
2017-08-04T00:26:25.996Z,4.20
2017-08-04T00:26:30.253Z,4.20
2017-08-04T00:26:34.496Z,4.05
2017-08-04T00:26:38.780Z,4.07
2017-08-04T00:26:43.789Z,4.15
2017-08-04T00:26:48.838Z,4.30
2017-08-04T00:26:53.088Z,4.37
2017-08-04T00:26:57.379Z,4.30
2017-08-04T00:27:01.601Z,4.70
2017-08-04T00:27:06.605Z,4.60
2017-08-04T00:27:10.860Z,4.50
2017-08-04T00:27:15.085Z,4.90
2017-08-04T00:27:19.337Z,4.90
2017-08-04T00:27:23.623Z,4.73
2017-08-04T00:27:27.869Z,4.75
2017-08-04T00:27:32.132Z,5.90
2017-08-04T00:27:37.175Z,6.30
2017-08-04T00:27:41.428Z,6.30
2017-08-04T00:27:45.687Z,7.20
2017-08-04T00:27:49.939Z,7.45
2017-08-04T00:27:54.176Z,7.45
2017-08-04T00:27:58.495Z,7.60
2017-08-04T00:28:02.749Z,7.00
2017-08-04T00:28:07.801Z,7.00
2017-08-04T00:28:12.084Z,6.90
2017-08-04T00:28:17.069Z,6.60
2017-08-04T00:28:22.109Z,6.70
2017-08-04T00:28:27.180Z,6.73
2017-08-04T00:28:31.421Z,5.77
2017-08-04T00:28:36.439Z,5.40
2017-08-04T00:28:41.456Z,5.43
2017-08-04T00:28:46.474Z,5.63
2017-08-04T00:28:51.505Z,5.60
2017-08-04T00:28:56.523Z,5.60
2017-08-04T00:29:01.527Z,5.80
2017-08-04T00:29:05.753Z,6.07
2017-08-04T00:29:10.025Z,6.10
2017-08-04T00:29:15.047Z,6.30
2017-08-04T00:29:20.116Z,6.37
2017-08-04T00:29:24.378Z,6.07
2017-08-04T00:29:29.385Z,6.00
2017-08-04T00:29:34.410Z,6.00
2017-08-04T00:29:39.417Z,6.03
2017-08-04T00:29:43.664Z,5.60
2017-08-04T00:29:47.982Z,5.55
2017-08-04T00:29:52.203Z,5.80
2017-08-04T00:29:56.472Z,5.50
2017-08-04T00:30:00.735Z,5.35
2017-08-04T00:30:05.729Z,5.30
2017-08-04T00:30:09.979Z,5.50
2017-08-04T00:30:14.210Z,5.77
2017-08-04T00:30:18.473Z,5.40
2017-08-04T00:30:22.731Z,5.75
2017-08-04T00:30:27.038Z,6.20
2017-08-04T00:30:31.283Z,6.05
2017-08-04T00:30:35.523Z,5.90
2017-08-04T00:30:39.779Z,5.80
2017-08-04T00:30:44.026Z,5.27
2017-08-04T00:30:48.291Z,4.90
2017-08-04T00:30:52.530Z,4.60
2017-08-04T00:30:56.778Z,5.40
2017-08-04T00:31:01.031Z,5.70
2017-08-04T00:31:06.065Z,6.40
2017-08-04T00:31:11.085Z,6.20
2017-08-04T00:31:16.107Z,6.10
2017-08-04T00:31:21.094Z,6.37
2017-08-04T00:31:25.330Z,6.30
2017-08-04T00:31:29.585Z,6.75
2017-08-04T00:31:33.824Z,7.63
2017-08-04T00:31:38.884Z,7.60
2017-08-04T00:31:43.109Z,7.73
2017-08-04T00:31:47.364Z,8.00
2017-08-04T00:31:51.597Z,8.10
2017-08-04T00:31:55.845Z,7.70
2017-08-04T00:32:00.093Z,7.25
2017-08-04T00:32:04.367Z,6.65
2017-08-04T00:32:09.368Z,7.05
2017-08-04T00:32:13.661Z,7.30
2017-08-04T00:32:18.671Z,7.17
2017-08-04T00:32:23.745Z,7.07
2017-08-04T00:32:27.982Z,6.47
2017-08-04T00:32:32.223Z,5.30
2017-08-04T00:32:36.470Z,5.75
2017-08-04T00:32:40.761Z,6.73
2017-08-04T00:32:45.007Z,7.20
2017-08-04T00:32:50.009Z,7.60
2017-08-04T00:32:55.066Z,8.07
2017-08-04T00:32:59.303Z,8.17
2017-08-04T00:33:03.548Z,8.23
2017-08-04T00:33:07.785Z,7.70
2017-08-04T00:33:12.051Z,7.10
2017-08-04T00:33:16.292Z,7.00
2017-08-04T00:33:20.532Z,6.87
2017-08-04T00:33:24.779Z,6.70
2017-08-04T00:33:29.033Z,6.70
2017-08-04T00:33:34.044Z,6.45
2017-08-04T00:33:38.337Z,5.67
2017-08-04T00:33:42.595Z,4.57
2017-08-04T00:33:46.828Z,3.70
2017-08-04T00:33:51.071Z,3.30
2017-08-04T00:33:55.319Z,3.15
2017-08-04T00:33:59.563Z,3.23
2017-08-04T00:34:03.807Z,3.05
2017-08-04T00:34:08.054Z,3.20
2017-08-04T00:34:13.449Z,3.67
2017-08-04T00:34:17.673Z,3.60
2017-08-04T00:34:22.704Z,3.50
2017-08-04T00:34:26.980Z,3.50
2017-08-04T00:34:31.235Z,3.90
2017-08-04T00:34:35.493Z,4.55
2017-08-04T00:34:40.498Z,5.20
2017-08-04T00:34:45.510Z,5.33
2017-08-04T00:34:49.758Z,5.33
2017-08-04T00:34:54.019Z,5.20
2017-08-04T00:34:58.257Z,5.03
2017-08-04T00:35:02.489Z,5.65
2017-08-04T00:35:06.748Z,5.60
2017-08-04T00:35:11.736Z,5.60
2017-08-04T00:35:15.964Z,6.20
2017-08-04T00:35:20.217Z,6.30
2017-08-04T00:35:24.525Z,6.70
2017-08-04T00:35:28.776Z,6.90
2017-08-04T00:35:33.019Z,6.45
2017-08-04T00:35:37.294Z,6.10
2017-08-04T00:35:41.581Z,6.65
2017-08-04T00:35:45.872Z,6.65
2017-08-04T00:35:50.115Z,6.43
2017-08-04T00:35:54.355Z,6.50
2017-08-04T00:35:59.415Z,6.50
2017-08-04T00:36:03.659Z,5.83
2017-08-04T00:36:07.889Z,6.10
2017-08-04T00:36:12.147Z,5.77
2017-08-04T00:36:16.391Z,5.60
2017-08-04T00:36:20.633Z,5.55
2017-08-04T00:36:24.885Z,5.40
2017-08-04T00:36:29.181Z,5.40
2017-08-04T00:36:34.187Z,5.40
2017-08-04T00:36:39.211Z,5.07
2017-08-04T00:36:43.495Z,4.33
2017-08-04T00:36:47.731Z,4.80
2017-08-04T00:36:51.969Z,5.07
2017-08-04T00:36:56.211Z,5.20
2017-08-04T00:37:01.275Z,5.25
2017-08-04T00:37:05.519Z,5.27
2017-08-04T00:37:10.521Z,5.00
2017-08-04T00:37:14.775Z,4.60
2017-08-04T00:37:19.002Z,5.70
2017-08-04T00:37:23.237Z,5.75
2017-08-04T00:37:28.259Z,5.50
2017-08-04T00:37:32.510Z,5.63
2017-08-04T00:37:36.788Z,5.93
2017-08-04T00:37:41.027Z,5.75
2017-08-04T00:37:45.299Z,5.25
2017-08-04T00:37:49.567Z,5.10
2017-08-04T00:37:54.603Z,4.80
2017-08-04T00:37:58.841Z,4.60
2017-08-04T00:38:03.099Z,4.85
2017-08-04T00:38:07.352Z,5.00
2017-08-04T00:38:11.596Z,5.03
2017-08-04T00:38:15.843Z,5.20
2017-08-04T00:38:20.088Z,4.30
2017-08-04T00:38:24.390Z,4.60
2017-08-04T00:38:29.399Z,4.60
2017-08-04T00:38:33.657Z,4.53
2017-08-04T00:38:37.899Z,4.70
2017-08-04T00:38:42.904Z,4.80
2017-08-04T00:38:47.148Z,4.80
2017-08-04T00:38:51.379Z,4.90
2017-08-04T00:38:55.742Z,5.37
2017-08-04T00:38:59.993Z,5.95
2017-08-04T00:39:04.267Z,5.85
2017-08-04T00:39:08.513Z,5.87
2017-08-04T00:39:13.547Z,5.75
2017-08-04T00:39:18.551Z,5.53
2017-08-04T00:39:23.561Z,6.00
2017-08-04T00:39:27.793Z,6.17
2017-08-04T00:39:32.043Z,6.25
2017-08-04T00:39:36.295Z,6.23
2017-08-04T00:39:40.581Z,6.35
2017-08-04T00:39:45.578Z,6.40
2017-08-04T00:39:50.585Z,6.60
2017-08-04T00:39:54.833Z,6.57
2017-08-04T00:39:59.197Z,6.00
2017-08-04T00:40:03.948Z,5.53
2017-08-04T00:40:15.662Z,5.43
2017-08-04T00:40:19.897Z,5.42
2017-08-04T00:40:24.156Z,4.90
2017-08-04T00:40:28.412Z,5.00
2017-08-04T00:40:32.645Z,5.70
2017-08-04T00:40:36.877Z,5.85
2017-08-04T00:40:41.113Z,6.20
2017-08-04T00:40:45.377Z,7.40
2017-08-04T00:40:49.617Z,7.45
2017-08-04T00:40:53.846Z,7.50
2017-08-04T00:40:58.086Z,7.67
2017-08-04T00:41:02.330Z,7.70
2017-08-04T00:41:06.595Z,7.75
2017-08-04T00:41:11.595Z,8.65
2017-08-04T00:41:15.838Z,9.67
2017-08-04T00:41:20.081Z,11.17
2017-08-04T00:41:24.366Z,10.95
2017-08-04T00:41:28.610Z,10.65
2017-08-04T00:41:33.625Z,9.85
2017-08-04T00:41:38.640Z,9.13
2017-08-04T00:41:42.891Z,8.57
2017-08-04T00:41:47.133Z,7.70
2017-08-04T00:41:51.443Z,7.40
2017-08-04T00:41:55.680Z,7.35
2017-08-04T00:41:59.977Z,7.50
2017-08-04T00:42:04.209Z,7.60
2017-08-04T00:42:08.441Z,7.60
2017-08-04T00:42:13.455Z,5.95
2017-08-04T00:42:18.090Z,4.73
2017-08-04T00:42:22.393Z,4.10
2017-08-04T00:42:26.693Z,4.05
2017-08-04T00:42:31.713Z,4.10
2017-08-04T00:42:35.989Z,4.63
2017-08-04T00:42:40.221Z,4.80
2017-08-04T00:42:44.468Z,4.70
2017-08-04T00:42:48.729Z,4.80
2017-08-04T00:42:52.962Z,4.90
2017-08-04T00:42:57.202Z,4.75
2017-08-04T00:43:01.497Z,4.60
2017-08-04T00:43:05.737Z,4.67
2017-08-04T00:43:09.975Z,4.95
2017-08-04T00:43:14.223Z,5.20
2017-08-04T00:43:18.461Z,5.25
2017-08-04T00:43:22.718Z,5.47
2017-08-04T00:43:26.963Z,6.00
2017-08-04T00:43:31.977Z,6.00
2017-08-04T00:43:36.234Z,5.77
2017-08-04T00:43:40.511Z,5.65
2017-08-04T00:43:44.749Z,5.73
2017-08-04T00:43:48.996Z,5.55
2017-08-04T00:43:53.253Z,5.35
2017-08-04T00:43:57.513Z,5.63
2017-08-04T00:44:02.529Z,5.80
2017-08-04T00:44:07.562Z,5.70
2017-08-04T00:44:12.577Z,5.87
2017-08-04T00:44:16.824Z,6.43
2017-08-04T00:44:21.111Z,6.65
2017-08-04T00:44:25.357Z,7.05
2017-08-04T00:44:30.220Z,6.90
2017-08-04T00:44:34.456Z,6.70
2017-08-04T00:44:38.751Z,6.60
2017-08-04T00:44:42.999Z,6.65
2017-08-04T00:44:48.026Z,7.05
2017-08-04T00:44:52.262Z,7.20
2017-08-04T00:44:56.500Z,7.03
2017-08-04T00:45:00.748Z,7.30
2017-08-04T00:45:04.977Z,7.40
2017-08-04T00:45:10.019Z,7.27
2017-08-04T00:45:15.013Z,6.57
2017-08-04T00:45:19.261Z,6.53
2017-08-04T00:45:23.504Z,6.15
2017-08-04T00:45:27.750Z,5.90
2017-08-04T00:45:32.785Z,6.20
2017-08-04T00:45:37.073Z,6.23
2017-08-04T00:45:41.344Z,6.10
2017-08-04T00:45:45.584Z,5.85
2017-08-04T00:45:49.826Z,6.25
2017-08-04T00:45:54.097Z,6.20
2017-08-04T00:45:58.351Z,5.80
2017-08-04T00:46:02.605Z,5.75
2017-08-04T00:46:06.845Z,5.70
2017-08-04T00:46:11.090Z,5.67
2017-08-04T00:46:15.344Z,5.80
2017-08-04T00:46:19.593Z,5.60
2017-08-04T00:46:23.847Z,5.70
2017-08-04T00:46:28.063Z,6.23
2017-08-04T00:46:33.073Z,6.15
2017-08-04T00:46:38.104Z,6.13
2017-08-04T00:46:42.363Z,6.33
2017-08-04T00:46:46.589Z,6.40
2017-08-04T00:46:51.593Z,5.90
2017-08-04T00:46:55.830Z,6.07
2017-08-04T00:47:00.073Z,6.00
2017-08-04T00:47:04.321Z,5.70
2017-08-04T00:47:09.417Z,5.85
2017-08-04T00:47:13.648Z,5.77
2017-08-04T00:47:17.873Z,5.70
2017-08-04T00:47:22.144Z,5.70
2017-08-04T00:47:26.386Z,4.95
2017-08-04T00:47:30.609Z,4.80
2017-08-04T00:47:35.670Z,5.13
2017-08-04T00:47:40.687Z,5.33
2017-08-04T00:47:44.975Z,5.27
2017-08-04T00:47:49.225Z,5.40
2017-08-04T00:47:53.453Z,5.75
2017-08-04T00:47:57.704Z,5.80
2017-08-04T00:48:01.967Z,5.80
2017-08-04T00:48:06.986Z,5.65
2017-08-04T00:48:12.061Z,5.47
2017-08-04T00:48:16.319Z,5.30
2017-08-04T00:48:21.305Z,5.40
2017-08-04T00:48:25.566Z,5.40
2017-08-04T00:48:29.802Z,5.30
2017-08-04T00:48:34.062Z,5.15
2017-08-04T00:48:38.303Z,5.05
2017-08-04T00:48:42.537Z,4.70
2017-08-04T00:48:46.830Z,4.70
2017-08-04T00:48:51.852Z,4.35
2017-08-04T00:48:56.087Z,4.20
2017-08-04T00:49:00.338Z,4.25
2017-08-04T00:49:04.585Z,4.50
2017-08-04T00:49:08.898Z,4.80
2017-08-04T00:49:13.117Z,4.75
2017-08-04T00:49:17.374Z,4.90
2017-08-04T00:49:21.688Z,4.77
2017-08-04T00:49:25.927Z,4.85
2017-08-04T00:49:30.171Z,5.10
2017-08-04T00:49:34.409Z,5.05
2017-08-04T00:49:38.671Z,5.20
2017-08-04T00:49:42.917Z,5.40
2017-08-04T00:49:47.141Z,5.10
2017-08-04T00:49:52.141Z,5.13
2017-08-04T00:49:56.385Z,5.30
2017-08-04T00:50:00.634Z,5.60
2017-08-04T00:50:04.877Z,5.80
2017-08-04T00:50:09.105Z,5.60
2017-08-04T00:50:13.359Z,5.60
2017-08-04T00:50:18.355Z,5.35
2017-08-04T00:50:22.658Z,5.20
2017-08-04T00:50:26.985Z,5.25
2017-08-04T00:50:31.236Z,4.85
2017-08-04T00:50:35.487Z,4.97
2017-08-04T00:50:40.488Z,5.20
2017-08-04T00:50:44.802Z,5.17
2017-08-04T00:50:49.790Z,5.05
2017-08-04T00:50:54.022Z,5.00
2017-08-04T00:50:59.029Z,4.70
2017-08-04T00:51:03.292Z,4.10
2017-08-04T00:51:07.526Z,3.90
2017-08-04T00:51:11.801Z,3.75
2017-08-04T00:51:16.041Z,3.65
2017-08-04T00:51:21.045Z,3.90
2017-08-04T00:51:25.318Z,3.73
2017-08-04T00:51:29.541Z,3.80
2017-08-04T00:51:33.773Z,3.85
2017-08-04T00:51:38.030Z,3.30
2017-08-04T00:51:42.288Z,3.23
2017-08-04T00:51:46.546Z,3.30
2017-08-04T00:51:50.773Z,3.10
2017-08-04T00:51:55.006Z,3.10
2017-08-04T00:51:59.241Z,3.35
2017-08-04T00:52:03.487Z,3.70
2017-08-04T00:52:07.727Z,3.70
2017-08-04T00:52:11.980Z,3.87
2017-08-04T00:52:21.951Z,3.85
2017-08-04T00:52:26.229Z,3.67
2017-08-04T00:52:30.489Z,3.80
2017-08-04T00:52:35.518Z,3.90
2017-08-04T00:52:40.509Z,3.90
2017-08-04T00:52:44.758Z,3.90
2017-08-04T00:52:49.011Z,4.13
2017-08-04T00:52:53.264Z,4.20
2017-08-04T00:52:57.497Z,3.85
2017-08-04T00:53:01.767Z,3.65
2017-08-04T00:53:06.027Z,3.53
2017-08-04T00:53:11.055Z,3.85
2017-08-04T00:53:16.138Z,4.20
2017-08-04T00:53:20.383Z,4.30
2017-08-04T00:53:24.643Z,4.20
2017-08-04T00:53:28.882Z,4.27
2017-08-04T00:53:33.126Z,4.20
2017-08-04T00:53:37.363Z,4.95
2017-08-04T00:53:42.361Z,5.20
2017-08-04T00:53:46.631Z,5.13
2017-08-04T00:53:50.897Z,5.33
2017-08-04T00:53:55.149Z,5.25
2017-08-04T00:53:59.396Z,5.25
2017-08-04T00:54:04.413Z,5.37
2017-08-04T00:54:09.435Z,5.17
2017-08-04T00:54:14.454Z,5.07
2017-08-04T00:54:18.685Z,4.93
2017-08-04T00:54:22.934Z,5.30
2017-08-04T00:54:27.926Z,5.65
2017-08-04T00:54:32.200Z,5.67
2017-08-04T00:54:36.434Z,5.05
2017-08-04T00:54:40.684Z,5.30
2017-08-04T00:54:44.929Z,5.50
2017-08-04T00:54:49.152Z,5.15
2017-08-04T00:54:54.165Z,5.30
2017-08-04T00:54:59.161Z,5.40
2017-08-04T00:55:03.410Z,5.17
2017-08-04T00:55:07.700Z,5.20
2017-08-04T00:55:12.716Z,4.95
2017-08-04T00:55:17.733Z,4.93
2017-08-04T00:55:22.731Z,5.10
2017-08-04T00:55:26.977Z,4.93
2017-08-04T00:55:31.210Z,4.70
2017-08-04T00:55:35.463Z,4.97
2017-08-04T00:55:39.728Z,4.75
2017-08-04T00:55:43.957Z,4.40
2017-08-04T00:55:48.290Z,4.60
2017-08-04T00:55:52.523Z,4.47
2017-08-04T00:55:56.784Z,4.95
2017-08-04T00:56:01.026Z,5.45
2017-08-04T00:56:05.253Z,6.00
2017-08-04T00:56:09.572Z,5.95
2017-08-04T00:56:13.814Z,6.00
2017-08-04T00:56:18.046Z,5.75
2017-08-04T00:56:23.090Z,5.47
2017-08-04T00:56:27.404Z,6.10
2017-08-04T00:56:31.634Z,6.90
2017-08-04T00:56:35.863Z,7.05
2017-08-04T00:56:40.869Z,7.00
2017-08-04T00:56:45.104Z,6.97
2017-08-04T00:56:49.369Z,6.65
2017-08-04T00:56:53.593Z,6.75
2017-08-04T00:56:57.865Z,6.50
2017-08-04T00:57:02.123Z,6.43
2017-08-04T00:57:06.346Z,6.45
2017-08-04T00:57:10.588Z,6.75
2017-08-04T00:57:15.603Z,7.15
2017-08-04T00:57:20.624Z,6.97
2017-08-04T00:57:24.897Z,7.00
2017-08-04T00:57:29.153Z,6.10
2017-08-04T00:57:33.420Z,5.65
2017-08-04T00:57:37.669Z,5.25
2017-08-04T00:57:41.931Z,5.10
2017-08-04T00:57:46.225Z,5.35
2017-08-04T00:57:50.467Z,6.65
2017-08-04T00:57:54.718Z,6.75
2017-08-04T00:57:58.968Z,6.67
2017-08-04T00:58:03.193Z,6.55
2017-08-04T00:58:07.442Z,6.20
2017-08-04T00:58:11.684Z,6.05
2017-08-04T00:58:15.926Z,5.77
2017-08-04T00:58:20.157Z,5.90
2017-08-04T00:58:24.413Z,5.75
2017-08-04T00:58:28.657Z,5.50
2017-08-04T00:58:32.917Z,5.23
2017-08-04T00:58:37.146Z,5.35
2017-08-04T00:58:41.402Z,5.60
2017-08-04T00:58:45.699Z,5.55
2017-08-04T00:58:49.998Z,4.60
2017-08-04T00:58:54.258Z,4.05
2017-08-04T00:58:58.465Z,3.70
2017-08-04T00:59:02.724Z,3.53
2017-08-04T00:59:06.962Z,3.70
2017-08-04T00:59:11.204Z,3.70